createdAt,value
2018-07-03T00:00:59.783Z,0
2018-07-03T00:02:01.399Z,0
2018-07-03T00:03:03.012Z,0
2018-07-03T00:04:04.619Z,0
2018-07-03T00:05:06.230Z,0
2018-07-03T00:06:07.855Z,0
2018-07-03T00:07:09.469Z,0
2018-07-03T00:08:11.088Z,0
2018-07-03T00:09:12.704Z,0
2018-07-03T00:10:14.319Z,0
2018-07-03T00:11:15.928Z,0
2018-07-03T00:12:17.555Z,0
2018-07-03T00:13:19.158Z,0
2018-07-03T00:14:20.779Z,0
2018-07-03T00:15:22.390Z,0
2018-07-03T00:16:24.001Z,0
2018-07-03T00:17:25.627Z,0
2018-07-03T00:18:27.233Z,0
2018-07-03T00:19:28.856Z,0
2018-07-03T00:20:30.470Z,0
2018-07-03T00:21:32.082Z,0
2018-07-03T00:22:33.698Z,0
2018-07-03T00:23:35.314Z,0
2018-07-03T00:24:36.959Z,0
2018-07-03T00:25:38.581Z,0
2018-07-03T00:26:40.195Z,0
2018-07-03T00:27:41.809Z,0
2018-07-03T00:28:43.421Z,0
2018-07-03T00:29:45.037Z,0
2018-07-03T00:30:46.651Z,0
2018-07-03T00:31:48.268Z,0
2018-07-03T00:32:49.893Z,0
2018-07-03T00:33:51.499Z,0
2018-07-03T00:34:53.117Z,0
2018-07-03T00:35:54.736Z,0
2018-07-03T00:36:56.345Z,0
2018-07-03T00:37:57.959Z,0
2018-07-03T00:38:59.570Z,0
2018-07-03T00:40:01.193Z,0
2018-07-03T00:41:02.809Z,0
2018-07-03T00:42:04.421Z,0
2018-07-03T00:43:06.034Z,0
2018-07-03T00:44:08.589Z,0
2018-07-03T00:45:10.202Z,0
2018-07-03T00:46:11.818Z,0
2018-07-03T00:47:13.435Z,0
2018-07-03T00:48:15.046Z,0
2018-07-03T00:49:16.662Z,0
2018-07-03T00:50:18.274Z,0
2018-07-03T00:51:19.893Z,0
2018-07-03T00:52:21.502Z,0
2018-07-03T00:53:23.121Z,0
2018-07-03T00:54:24.739Z,0
2018-07-03T00:55:26.350Z,0
2018-07-03T00:56:27.973Z,0
2018-07-03T00:57:29.591Z,0
2018-07-03T00:58:31.202Z,0
2018-07-03T00:59:32.813Z,0
2018-07-03T01:00:34.428Z,0
2018-07-03T01:01:36.046Z,0
2018-07-03T01:02:37.661Z,0
2018-07-03T01:03:39.270Z,0
2018-07-03T01:04:40.891Z,0
2018-07-03T01:05:42.511Z,0
2018-07-03T01:06:44.127Z,0
2018-07-03T01:07:45.745Z,0
2018-07-03T01:08:47.356Z,0
2018-07-03T01:09:48.974Z,0
2018-07-03T01:10:50.586Z,0
2018-07-03T01:11:52.203Z,0
2018-07-03T01:12:53.824Z,0
2018-07-03T01:13:55.439Z,0
2018-07-03T01:14:57.049Z,0
2018-07-03T01:15:58.666Z,0
2018-07-03T01:17:00.276Z,0
2018-07-03T01:18:01.893Z,0
2018-07-03T01:19:03.511Z,0
2018-07-03T01:20:05.120Z,0
2018-07-03T01:21:06.740Z,0
2018-07-03T01:22:08.365Z,0
2018-07-03T01:23:09.986Z,0
2018-07-03T01:24:11.597Z,0
2018-07-03T01:25:13.213Z,0
2018-07-03T01:26:14.826Z,0
2018-07-03T01:27:16.444Z,0
2018-07-03T01:28:18.052Z,0
2018-07-03T01:29:19.671Z,0
2018-07-03T01:30:21.284Z,0
2018-07-03T01:31:22.896Z,0
2018-07-03T01:32:24.517Z,0
2018-07-03T01:33:26.133Z,0
2018-07-03T01:34:27.743Z,0
2018-07-03T01:35:29.362Z,0
2018-07-03T01:36:30.972Z,0
2018-07-03T01:37:32.595Z,0
2018-07-03T01:38:34.741Z,0
2018-07-03T01:39:36.360Z,0
2018-07-03T01:40:37.979Z,0
2018-07-03T01:41:39.585Z,0
2018-07-03T01:42:41.215Z,0
2018-07-03T01:43:42.830Z,0
2018-07-03T01:44:44.449Z,0
2018-07-03T01:45:46.061Z,0
2018-07-03T01:46:47.671Z,0
2018-07-03T01:47:49.298Z,0
2018-07-03T01:48:50.904Z,0
2018-07-03T01:49:52.517Z,0
2018-07-03T01:50:54.134Z,0
2018-07-03T01:51:55.750Z,0
2018-07-03T01:52:57.370Z,0
2018-07-03T01:53:58.981Z,0
2018-07-03T01:55:00.597Z,0
2018-07-03T01:56:02.210Z,0
2018-07-03T01:57:03.822Z,0
2018-07-03T01:58:05.441Z,0
2018-07-03T01:59:07.728Z,0
2018-07-03T02:00:09.341Z,0
2018-07-03T02:01:10.952Z,0
2018-07-03T02:02:12.574Z,0
2018-07-03T02:03:14.188Z,0
2018-07-03T02:04:15.801Z,0
2018-07-03T02:05:17.416Z,0
2018-07-03T02:06:19.033Z,0
2018-07-03T02:07:20.641Z,0
2018-07-03T02:08:22.305Z,0
2018-07-03T02:09:23.874Z,0
2018-07-03T02:10:25.485Z,0
2018-07-03T02:11:27.102Z,0
2018-07-03T02:12:28.712Z,0
2018-07-03T02:13:30.326Z,0
2018-07-03T02:14:31.946Z,0
2018-07-03T02:15:33.565Z,0
2018-07-03T02:16:35.176Z,0
2018-07-03T02:17:36.795Z,0
2018-07-03T02:18:38.405Z,0
2018-07-03T02:19:40.022Z,0
2018-07-03T02:20:41.641Z,0
2018-07-03T02:21:43.249Z,0
2018-07-03T02:22:44.865Z,0
2018-07-03T02:23:46.483Z,0
2018-07-03T02:24:48.091Z,0
2018-07-03T02:25:49.702Z,0
2018-07-03T02:26:51.321Z,0
2018-07-03T02:27:52.927Z,0
2018-07-03T02:28:54.546Z,0
2018-07-03T02:29:56.164Z,0
2018-07-03T02:30:57.778Z,0
2018-07-03T02:31:59.396Z,0
2018-07-03T02:33:01.008Z,0
2018-07-03T02:34:02.622Z,0
2018-07-03T02:35:04.238Z,0
2018-07-03T02:36:05.858Z,0
2018-07-03T02:37:07.479Z,0
2018-07-03T02:38:09.097Z,0
2018-07-03T02:39:10.760Z,0
2018-07-03T02:40:12.328Z,0
2018-07-03T02:41:13.955Z,0
2018-07-03T02:42:15.577Z,0
2018-07-03T02:43:17.194Z,0
2018-07-03T02:44:18.855Z,0
2018-07-03T02:45:20.480Z,0
2018-07-03T02:46:22.092Z,0
2018-07-03T02:47:23.703Z,0
2018-07-03T02:48:25.318Z,0
2018-07-03T02:49:26.929Z,0
2018-07-03T02:50:28.542Z,0
2018-07-03T02:51:30.165Z,0
2018-07-03T02:52:31.780Z,0
2018-07-03T02:53:33.395Z,0
2018-07-03T02:54:35.015Z,0
2018-07-03T02:55:36.623Z,0
2018-07-03T02:56:38.243Z,0
2018-07-03T02:57:39.854Z,0
2018-07-03T02:58:41.469Z,0
2018-07-03T02:59:43.085Z,0
2018-07-03T03:00:44.699Z,0
2018-07-03T03:01:46.824Z,0
2018-07-03T03:02:48.447Z,0
2018-07-03T03:03:50.629Z,5
2018-07-03T03:04:53.742Z,5
2018-07-03T03:05:55.357Z,5
2018-07-03T03:06:57.264Z,5
2018-07-03T03:07:58.880Z,5
2018-07-03T03:09:00.496Z,5
2018-07-03T03:10:02.105Z,5
2018-07-03T03:11:03.720Z,5
2018-07-03T03:12:05.338Z,11
2018-07-03T03:13:06.966Z,11
2018-07-03T03:14:08.575Z,11
2018-07-03T03:15:10.192Z,11
2018-07-03T03:16:11.811Z,11
2018-07-03T03:17:13.428Z,16
2018-07-03T03:18:15.041Z,16
2018-07-03T03:19:16.662Z,16
2018-07-03T03:20:18.278Z,16
2018-07-03T03:21:19.897Z,22
2018-07-03T03:22:21.538Z,22
2018-07-03T03:23:23.129Z,22
2018-07-03T03:24:24.754Z,22
2018-07-03T03:25:26.372Z,28
2018-07-03T03:26:27.986Z,28
2018-07-03T03:27:29.609Z,28
2018-07-03T03:28:31.222Z,33
2018-07-03T03:29:32.842Z,33
2018-07-03T03:30:34.457Z,33
2018-07-03T03:31:36.071Z,39
2018-07-03T03:32:37.691Z,39
2018-07-03T03:33:39.311Z,45
2018-07-03T03:34:40.925Z,45
2018-07-03T03:35:42.549Z,45
2018-07-03T03:36:44.161Z,50
2018-07-03T03:37:45.786Z,50
2018-07-03T03:38:47.395Z,56
2018-07-03T03:39:49.017Z,56
2018-07-03T03:40:50.631Z,56
2018-07-03T03:41:52.245Z,61
2018-07-03T03:42:53.868Z,61
2018-07-03T03:43:55.480Z,67
2018-07-03T03:44:57.101Z,67
2018-07-03T03:45:58.721Z,67
2018-07-03T03:47:00.338Z,73
2018-07-03T03:48:01.955Z,73
2018-07-03T03:49:03.579Z,78
2018-07-03T03:50:05.195Z,78
2018-07-03T03:51:06.808Z,84
2018-07-03T03:52:08.427Z,84
2018-07-03T03:53:10.041Z,90
2018-07-03T03:54:11.660Z,90
2018-07-03T03:55:13.276Z,90
2018-07-03T03:56:14.889Z,95
2018-07-03T03:57:16.513Z,95
2018-07-03T03:58:18.128Z,101
2018-07-03T03:59:19.749Z,101
2018-07-03T04:00:21.373Z,106
2018-07-03T04:01:22.989Z,106
2018-07-03T04:02:24.603Z,106
2018-07-03T04:03:26.223Z,112
2018-07-03T04:04:27.849Z,112
2018-07-03T04:05:29.473Z,112
2018-07-03T04:06:31.090Z,118
2018-07-03T04:07:32.706Z,118
2018-07-03T04:08:34.328Z,123
2018-07-03T04:09:35.942Z,123
2018-07-03T04:10:37.564Z,123
2018-07-03T04:11:39.187Z,129
2018-07-03T04:12:40.806Z,129
2018-07-03T04:13:42.420Z,129
2018-07-03T04:14:44.041Z,135
2018-07-03T04:15:45.659Z,135
2018-07-03T04:16:47.316Z,140
2018-07-03T04:17:48.943Z,140
2018-07-03T04:18:50.562Z,140
2018-07-03T04:19:52.181Z,146
2018-07-03T04:20:53.799Z,146
2018-07-03T04:21:55.420Z,146
2018-07-03T04:22:57.038Z,151
2018-07-03T04:23:58.656Z,151
2018-07-03T04:25:00.281Z,151
2018-07-03T04:26:01.899Z,157
2018-07-03T04:27:03.518Z,157
2018-07-03T04:28:05.136Z,157
2018-07-03T04:29:06.751Z,157
2018-07-03T04:30:08.376Z,163
2018-07-03T04:31:10.000Z,163
2018-07-03T04:32:11.618Z,163
2018-07-03T04:33:13.240Z,168
2018-07-03T04:34:14.856Z,168
2018-07-03T04:35:16.478Z,168
2018-07-03T04:36:18.094Z,168
2018-07-03T04:37:19.719Z,174
2018-07-03T04:38:21.334Z,174
2018-07-03T04:39:22.954Z,174
2018-07-03T04:40:24.577Z,174
2018-07-03T04:41:26.200Z,180
2018-07-03T04:42:27.813Z,180
2018-07-03T04:43:29.435Z,180
2018-07-03T04:44:31.053Z,185
2018-07-03T04:45:32.675Z,185
2018-07-03T04:46:34.292Z,185
2018-07-03T04:47:35.912Z,185
2018-07-03T04:48:37.561Z,191
2018-07-03T04:49:39.178Z,191
2018-07-03T04:50:40.801Z,191
2018-07-03T04:51:42.422Z,191
2018-07-03T04:52:44.038Z,196
2018-07-03T04:53:45.662Z,196
2018-07-03T04:54:47.284Z,196
2018-07-03T04:55:48.902Z,202
2018-07-03T04:56:50.522Z,202
2018-07-03T04:57:52.140Z,202
2018-07-03T04:58:53.760Z,202
2018-07-03T04:59:55.376Z,208
2018-07-03T05:00:57.001Z,208
2018-07-03T05:01:58.627Z,208
2018-07-03T05:03:00.242Z,213
2018-07-03T05:04:01.867Z,213
2018-07-03T05:05:03.482Z,213
2018-07-03T05:06:05.102Z,219
2018-07-03T05:07:06.723Z,219
2018-07-03T05:08:08.344Z,219
2018-07-03T05:09:09.963Z,219
2018-07-03T05:10:11.622Z,225
2018-07-03T05:11:13.206Z,225
2018-07-03T05:12:14.827Z,225
2018-07-03T05:13:16.447Z,230
2018-07-03T05:14:18.067Z,230
2018-07-03T05:15:19.717Z,230
2018-07-03T05:16:21.344Z,230
2018-07-03T05:17:22.994Z,225
2018-07-03T05:18:24.597Z,219
2018-07-03T05:19:26.222Z,225
2018-07-03T05:20:27.842Z,225
2018-07-03T05:21:29.468Z,225
2018-07-03T05:22:31.576Z,225
2018-07-03T05:23:33.175Z,225
2018-07-03T05:24:34.853Z,225
2018-07-03T05:25:36.415Z,236
2018-07-03T05:26:38.038Z,230
2018-07-03T05:27:40.654Z,230
2018-07-03T05:28:42.273Z,230
2018-07-03T05:29:44.658Z,236
2018-07-03T05:30:46.196Z,236
2018-07-03T05:31:47.837Z,236
2018-07-03T05:32:49.412Z,236
2018-07-03T05:33:51.193Z,236
2018-07-03T05:34:52.807Z,236
2018-07-03T05:35:54.434Z,241
2018-07-03T05:36:56.054Z,241
2018-07-03T05:37:57.680Z,241
2018-07-03T05:38:59.304Z,241
2018-07-03T05:40:00.916Z,247
2018-07-03T05:41:02.537Z,230
2018-07-03T05:42:04.162Z,241
2018-07-03T05:43:05.780Z,241
2018-07-03T05:44:07.401Z,247
2018-07-03T05:45:09.027Z,247
2018-07-03T05:46:10.649Z,247
2018-07-03T05:47:12.589Z,247
2018-07-03T05:48:14.212Z,247
2018-07-03T05:49:15.833Z,253
2018-07-03T05:50:17.448Z,253
2018-07-03T05:51:19.138Z,253
2018-07-03T05:52:20.698Z,253
2018-07-03T05:53:22.308Z,253
2018-07-03T05:54:23.938Z,253
2018-07-03T05:55:25.554Z,258
2018-07-03T05:56:27.206Z,258
2018-07-03T05:57:28.798Z,258
2018-07-03T05:58:30.412Z,258
2018-07-03T05:59:32.037Z,264
2018-07-03T06:00:33.653Z,264
2018-07-03T06:01:35.274Z,264
2018-07-03T06:02:36.888Z,270
2018-07-03T06:03:38.507Z,286
2018-07-03T06:04:40.131Z,286
2018-07-03T06:05:41.747Z,286
2018-07-03T06:06:43.371Z,292
2018-07-03T06:07:44.990Z,292
2018-07-03T06:08:46.607Z,292
2018-07-03T06:09:48.232Z,298
2018-07-03T06:10:49.849Z,298
2018-07-03T06:11:51.465Z,303
2018-07-03T06:12:53.106Z,303
2018-07-03T06:13:54.712Z,315
2018-07-03T06:14:56.358Z,326
2018-07-03T06:15:57.953Z,348
2018-07-03T06:16:59.570Z,635
2018-07-03T06:18:01.192Z,1282
2018-07-03T06:19:02.819Z,1811
2018-07-03T06:20:04.438Z,2255
2018-07-03T06:21:06.110Z,2092
2018-07-03T06:22:07.735Z,1968
2018-07-03T06:23:09.356Z,1996
2018-07-03T06:24:10.974Z,2278
2018-07-03T06:25:12.610Z,2497
2018-07-03T06:26:14.228Z,2143
2018-07-03T06:27:15.856Z,2086
2018-07-03T06:28:17.656Z,2176
2018-07-03T06:29:19.102Z,2503
2018-07-03T06:30:20.725Z,2536
2018-07-03T06:31:22.352Z,2272
2018-07-03T06:32:23.977Z,2227
2018-07-03T06:33:25.599Z,2491
2018-07-03T06:34:27.223Z,2840
2018-07-03T06:35:28.847Z,2767
2018-07-03T06:36:30.470Z,2694
2018-07-03T06:37:32.124Z,2801
2018-07-03T06:38:33.723Z,2986
2018-07-03T06:39:35.349Z,2975
2018-07-03T06:40:36.974Z,3015
2018-07-03T06:41:38.606Z,2986
2018-07-03T06:42:40.230Z,2750
2018-07-03T06:43:41.858Z,2660
2018-07-03T06:44:43.544Z,2632
2018-07-03T06:45:45.124Z,2840
2018-07-03T06:46:46.738Z,2880
2018-07-03T06:47:48.370Z,2801
2018-07-03T06:48:50.000Z,2806
2018-07-03T06:49:51.648Z,2998
2018-07-03T06:50:53.275Z,3256
2018-07-03T06:51:54.901Z,2970
2018-07-03T06:52:56.536Z,2722
2018-07-03T06:53:58.163Z,2975
2018-07-03T06:54:59.800Z,3245
2018-07-03T06:56:01.426Z,3470
2018-07-03T06:57:03.068Z,3701
2018-07-03T06:58:04.694Z,3701
2018-07-03T06:59:06.324Z,3566
2018-07-03T07:00:07.961Z,3622
2018-07-03T07:01:09.593Z,3740
2018-07-03T07:02:11.228Z,4021
2018-07-03T07:03:12.858Z,4511
2018-07-03T07:04:14.497Z,4702
2018-07-03T07:05:16.128Z,4320
2018-07-03T07:06:17.763Z,4078
2018-07-03T07:07:19.401Z,3690
2018-07-03T07:08:21.050Z,3161
2018-07-03T07:09:22.763Z,2941
2018-07-03T07:10:24.323Z,2688
2018-07-03T07:11:25.959Z,2463
2018-07-03T07:12:27.595Z,2300
2018-07-03T07:13:29.228Z,2261
2018-07-03T07:14:30.864Z,2216
2018-07-03T07:15:32.500Z,2154
2018-07-03T07:16:34.132Z,2182
2018-07-03T07:17:35.771Z,2171
2018-07-03T07:18:37.406Z,2160
2018-07-03T07:19:39.044Z,2176
2018-07-03T07:20:40.675Z,2176
2018-07-03T07:21:42.315Z,2182
2018-07-03T07:22:43.972Z,2188
2018-07-03T07:23:45.603Z,2182
2018-07-03T07:24:47.240Z,2199
2018-07-03T07:25:48.876Z,2210
2018-07-03T07:26:50.515Z,2238
2018-07-03T07:27:52.148Z,2255
2018-07-03T07:28:53.787Z,2250
2018-07-03T07:29:55.423Z,2272
2018-07-03T07:30:57.059Z,2300
2018-07-03T07:31:58.697Z,2300
2018-07-03T07:33:00.340Z,2311
2018-07-03T07:34:01.992Z,2317
2018-07-03T07:35:03.610Z,2340
2018-07-03T07:36:05.243Z,2385
2018-07-03T07:37:06.887Z,2340
2018-07-03T07:38:08.520Z,2368
2018-07-03T07:39:10.158Z,2396
2018-07-03T07:40:11.795Z,2390
2018-07-03T07:41:13.428Z,2401
2018-07-03T07:42:15.068Z,2446
2018-07-03T07:43:16.713Z,2452
2018-07-03T07:44:18.345Z,2452
2018-07-03T07:45:19.979Z,2452
2018-07-03T07:46:21.617Z,2446
2018-07-03T07:47:23.260Z,2458
2018-07-03T07:48:24.888Z,2446
2018-07-03T07:49:26.534Z,2446
2018-07-03T07:50:28.171Z,2452
2018-07-03T07:51:29.809Z,2469
2018-07-03T07:52:31.452Z,2452
2018-07-03T07:53:33.088Z,2441
2018-07-03T07:54:34.730Z,2463
2018-07-03T07:55:36.370Z,2486
2018-07-03T07:56:38.007Z,2480
2018-07-03T07:57:39.647Z,2463
2018-07-03T07:58:41.286Z,2446
2018-07-03T07:59:42.925Z,2452
2018-07-03T08:00:44.561Z,2458
2018-07-03T08:01:46.211Z,2418
2018-07-03T08:02:47.844Z,2390
2018-07-03T08:03:49.483Z,2396
2018-07-03T08:04:51.128Z,2396
2018-07-03T08:05:52.761Z,2396
2018-07-03T08:06:54.403Z,2390
2018-07-03T08:07:56.045Z,2390
2018-07-03T08:08:57.685Z,2379
2018-07-03T08:09:59.320Z,2351
2018-07-03T08:11:00.955Z,2351
2018-07-03T08:12:02.597Z,2351
2018-07-03T08:13:04.265Z,2351
2018-07-03T08:14:05.902Z,2306
2018-07-03T08:15:07.548Z,2311
2018-07-03T08:16:09.187Z,2295
2018-07-03T08:17:10.823Z,2255
2018-07-03T08:18:12.468Z,2255
2018-07-03T08:19:14.154Z,2255
2018-07-03T08:20:15.750Z,2255
2018-07-03T08:21:17.390Z,2255
2018-07-03T08:22:19.028Z,2255
2018-07-03T08:23:20.672Z,2278
2018-07-03T08:24:22.310Z,2300
2018-07-03T08:25:23.957Z,2345
2018-07-03T08:26:25.594Z,2401
2018-07-03T08:27:27.235Z,2452
2018-07-03T08:28:28.880Z,2570
2018-07-03T08:29:30.525Z,2688
2018-07-03T08:30:32.166Z,2638
2018-07-03T08:31:33.808Z,2688
2018-07-03T08:32:35.447Z,3093
2018-07-03T08:33:37.093Z,3960
2018-07-03T08:34:38.735Z,4680
2018-07-03T08:35:40.386Z,4910
2018-07-03T08:36:42.024Z,5045
2018-07-03T08:37:43.677Z,5068
2018-07-03T08:38:45.314Z,5040
2018-07-03T08:39:46.953Z,5355
2018-07-03T08:40:48.599Z,5518
2018-07-03T08:41:50.267Z,5529
2018-07-03T08:42:51.917Z,5506
2018-07-03T08:43:53.555Z,5473
2018-07-03T08:44:55.210Z,5613
2018-07-03T08:45:56.849Z,5557
2018-07-03T08:46:58.492Z,5568
2018-07-03T08:48:00.143Z,5928
2018-07-03T08:49:01.781Z,6058
2018-07-03T08:50:03.431Z,6063
2018-07-03T08:51:05.075Z,6069
2018-07-03T08:52:06.718Z,6136
2018-07-03T08:53:08.365Z,6361
2018-07-03T08:54:10.003Z,6300
2018-07-03T08:55:11.661Z,6153
2018-07-03T08:56:13.298Z,6001
2018-07-03T08:57:14.940Z,6339
2018-07-03T08:58:16.659Z,6828
2018-07-03T08:59:18.232Z,6941
2018-07-03T09:00:19.876Z,6834
2018-07-03T09:01:21.519Z,6665
2018-07-03T09:02:23.178Z,6688
2018-07-03T09:03:24.823Z,6750
2018-07-03T09:04:26.468Z,6941
2018-07-03T09:05:28.117Z,7284
2018-07-03T09:06:29.759Z,7008
2018-07-03T09:07:31.407Z,6766
2018-07-03T09:08:33.055Z,6840
2018-07-03T09:09:34.698Z,6778
2018-07-03T09:10:36.347Z,6716
2018-07-03T09:11:38.002Z,6890
2018-07-03T09:12:39.641Z,7008
2018-07-03T09:13:41.292Z,7194
2018-07-03T09:14:42.930Z,7419
2018-07-03T09:15:44.580Z,7098
2018-07-03T09:16:46.226Z,6946
2018-07-03T09:17:47.880Z,6789
2018-07-03T09:18:49.521Z,7042
2018-07-03T09:19:51.174Z,7436
2018-07-03T09:20:52.820Z,7453
2018-07-03T09:21:54.463Z,7155
2018-07-03T09:22:56.113Z,7155
2018-07-03T09:23:57.755Z,7245
2018-07-03T09:24:59.408Z,7149
2018-07-03T09:26:01.065Z,7098
2018-07-03T09:27:02.707Z,7081
2018-07-03T09:28:04.357Z,6975
2018-07-03T09:29:06.006Z,6671
2018-07-03T09:30:07.649Z,6221
2018-07-03T09:31:09.302Z,6778
2018-07-03T09:32:10.948Z,7408
2018-07-03T09:33:12.597Z,7138
2018-07-03T09:34:14.247Z,6300
2018-07-03T09:35:15.894Z,5962
2018-07-03T09:36:17.584Z,6660
2018-07-03T09:37:19.196Z,7610
2018-07-03T09:38:20.838Z,7638
2018-07-03T09:39:22.489Z,7036
2018-07-03T09:40:24.169Z,6536
2018-07-03T09:41:25.821Z,6620
2018-07-03T09:42:27.476Z,7070
2018-07-03T09:43:29.115Z,7616
2018-07-03T09:44:30.767Z,7520
2018-07-03T09:45:32.410Z,7216
2018-07-03T09:46:34.057Z,7284
2018-07-03T09:47:35.703Z,7273
2018-07-03T09:48:37.351Z,7132
2018-07-03T09:49:38.999Z,7261
2018-07-03T09:50:40.648Z,7554
2018-07-03T09:51:43.224Z,7419
2018-07-03T09:52:43.892Z,7408
2018-07-03T09:53:45.540Z,7593
2018-07-03T09:54:47.211Z,7655
2018-07-03T09:55:48.837Z,7329
2018-07-03T09:56:50.477Z,7110
2018-07-03T09:57:52.133Z,7571
2018-07-03T09:58:53.764Z,7126
2018-07-03T09:59:55.414Z,6091
2018-07-03T10:00:57.058Z,6300
2018-07-03T10:01:58.701Z,7312
2018-07-03T10:03:00.352Z,7391
2018-07-03T10:04:02.013Z,6716
2018-07-03T10:05:03.660Z,6553
2018-07-03T10:06:05.304Z,6840
2018-07-03T10:07:06.945Z,6845
2018-07-03T10:08:08.589Z,6778
2018-07-03T10:09:10.234Z,6586
2018-07-03T10:10:11.879Z,6491
2018-07-03T10:11:13.532Z,6446
2018-07-03T10:12:15.177Z,6519
2018-07-03T10:13:16.823Z,6750
2018-07-03T10:14:18.467Z,6750
2018-07-03T10:15:20.114Z,6361
2018-07-03T10:16:21.759Z,6131
2018-07-03T10:17:23.412Z,6226
2018-07-03T10:18:25.064Z,6159
2018-07-03T10:19:26.701Z,6311
2018-07-03T10:20:28.351Z,6322
2018-07-03T10:21:30.000Z,6418
2018-07-03T10:22:31.645Z,6660
2018-07-03T10:23:33.298Z,6367
2018-07-03T10:24:34.939Z,6069
2018-07-03T10:25:36.596Z,6446
2018-07-03T10:26:38.248Z,6671
2018-07-03T10:27:39.877Z,6682
2018-07-03T10:28:41.525Z,6823
2018-07-03T10:29:43.171Z,6721
2018-07-03T10:30:44.813Z,6418
2018-07-03T10:31:46.466Z,6485
2018-07-03T10:32:48.109Z,6828
2018-07-03T10:33:49.757Z,6924
2018-07-03T10:34:51.403Z,6918
2018-07-03T10:35:53.048Z,6890
2018-07-03T10:36:54.694Z,6682
2018-07-03T10:37:56.344Z,6575
2018-07-03T10:38:57.988Z,7020
2018-07-03T10:39:59.634Z,7166
2018-07-03T10:41:01.313Z,7042
2018-07-03T10:42:02.930Z,6930
2018-07-03T10:43:04.572Z,6733
2018-07-03T10:44:06.221Z,6868
2018-07-03T10:45:07.870Z,6946
2018-07-03T10:46:09.519Z,6811
2018-07-03T10:47:11.166Z,6468
2018-07-03T10:48:12.810Z,6395
2018-07-03T10:49:14.454Z,6626
2018-07-03T10:50:16.104Z,6631
2018-07-03T10:51:17.749Z,6406
2018-07-03T10:52:19.397Z,6300
2018-07-03T10:53:21.045Z,6710
2018-07-03T10:54:22.693Z,6834
2018-07-03T10:55:24.342Z,5760
2018-07-03T10:56:25.992Z,5321
2018-07-03T10:57:27.643Z,6198
2018-07-03T10:58:29.293Z,6536
2018-07-03T10:59:30.967Z,6660
2018-07-03T11:00:32.589Z,6856
2018-07-03T11:01:34.236Z,6885
2018-07-03T11:02:35.886Z,6665
2018-07-03T11:03:37.536Z,6688
2018-07-03T11:04:39.179Z,6800
2018-07-03T11:05:40.866Z,6941
2018-07-03T11:06:42.477Z,7031
2018-07-03T11:07:44.121Z,7036
2018-07-03T11:08:45.773Z,6828
2018-07-03T11:09:47.423Z,6570
2018-07-03T11:10:49.066Z,6845
2018-07-03T11:11:50.718Z,7003
2018-07-03T11:12:52.370Z,6918
2018-07-03T11:13:54.089Z,7003
2018-07-03T11:14:55.665Z,6648
2018-07-03T11:15:57.314Z,6170
2018-07-03T11:16:58.957Z,6153
2018-07-03T11:18:00.613Z,6446
2018-07-03T11:19:02.251Z,6817
2018-07-03T11:20:03.965Z,7273
2018-07-03T11:21:05.549Z,7194
2018-07-03T11:22:07.197Z,7076
2018-07-03T11:23:08.848Z,7200
2018-07-03T11:24:10.497Z,6935
2018-07-03T11:25:12.134Z,6834
2018-07-03T11:26:13.782Z,6963
2018-07-03T11:27:15.431Z,7031
2018-07-03T11:28:17.080Z,7059
2018-07-03T11:29:18.732Z,6840
2018-07-03T11:30:20.386Z,6783
2018-07-03T11:31:22.026Z,6643
2018-07-03T11:32:23.673Z,6440
2018-07-03T11:33:25.325Z,6609
2018-07-03T11:34:26.967Z,6480
2018-07-03T11:35:28.615Z,6435
2018-07-03T11:36:30.266Z,6446
2018-07-03T11:37:31.908Z,6513
2018-07-03T11:38:33.556Z,6778
2018-07-03T11:39:35.196Z,6783
2018-07-03T11:40:36.839Z,6840
2018-07-03T11:41:38.491Z,6946
2018-07-03T11:42:40.141Z,6643
2018-07-03T11:43:41.789Z,6131
2018-07-03T11:44:43.493Z,6395
2018-07-03T11:45:45.081Z,7121
2018-07-03T11:46:46.730Z,7515
2018-07-03T11:47:48.370Z,6834
2018-07-03T11:48:50.014Z,6800
2018-07-03T11:49:51.661Z,7025
2018-07-03T11:50:53.319Z,7025
2018-07-03T11:51:54.962Z,6828
2018-07-03T11:52:56.601Z,6952
2018-07-03T11:53:58.252Z,7121
2018-07-03T11:54:59.901Z,7031
2018-07-03T11:56:01.543Z,6811
2018-07-03T11:57:03.191Z,6806
2018-07-03T11:58:04.835Z,6918
2018-07-03T11:59:06.484Z,6637
2018-07-03T12:00:08.138Z,6564
2018-07-03T12:01:09.779Z,6401
2018-07-03T12:02:11.431Z,6221
2018-07-03T12:03:13.080Z,6480
2018-07-03T12:04:14.722Z,6856
2018-07-03T12:05:16.376Z,6997
2018-07-03T12:06:18.021Z,6553
2018-07-03T12:07:19.663Z,6075
2018-07-03T12:08:21.310Z,6080
2018-07-03T12:09:22.955Z,6339
2018-07-03T12:10:24.600Z,6435
2018-07-03T12:11:26.252Z,6564
2018-07-03T12:12:27.893Z,6463
2018-07-03T12:13:29.537Z,6345
2018-07-03T12:14:31.187Z,6333
2018-07-03T12:15:32.829Z,6502
2018-07-03T12:16:34.469Z,6626
2018-07-03T12:17:36.857Z,6333
2018-07-03T12:18:38.495Z,6468
2018-07-03T12:19:40.709Z,6660
2018-07-03T12:20:42.296Z,6688
2018-07-03T12:21:43.936Z,6609
2018-07-03T12:22:45.580Z,6480
2018-07-03T12:23:47.227Z,6440
2018-07-03T12:24:49.712Z,6423
2018-07-03T12:25:51.362Z,6457
2018-07-03T12:26:53.013Z,6423
2018-07-03T12:27:54.658Z,6896
2018-07-03T12:28:56.364Z,6727
2018-07-03T12:29:57.948Z,6328
2018-07-03T12:30:59.593Z,6288
2018-07-03T12:32:01.233Z,6255
2018-07-03T12:33:02.872Z,6564
2018-07-03T12:34:04.518Z,6474
2018-07-03T12:35:06.162Z,6491
2018-07-03T12:36:07.803Z,6148
2018-07-03T12:37:09.444Z,5923
2018-07-03T12:38:11.095Z,6086
2018-07-03T12:39:12.731Z,6120
2018-07-03T12:40:14.374Z,6097
2018-07-03T12:41:16.024Z,5990
2018-07-03T12:42:17.671Z,5625
2018-07-03T12:43:19.309Z,5686
2018-07-03T12:44:20.953Z,6232
2018-07-03T12:45:22.592Z,6300
2018-07-03T12:46:24.232Z,6086
2018-07-03T12:47:25.882Z,6086
2018-07-03T12:48:27.530Z,6114
2018-07-03T12:49:29.176Z,6007
2018-07-03T12:50:30.819Z,5793
2018-07-03T12:51:32.467Z,5906
2018-07-03T12:52:34.107Z,5951
2018-07-03T12:53:35.747Z,6035
2018-07-03T12:54:37.383Z,6097
2018-07-03T12:55:39.037Z,6170
2018-07-03T12:56:40.683Z,6013
2018-07-03T12:57:42.320Z,5754
2018-07-03T12:58:43.963Z,5838
2018-07-03T12:59:45.602Z,6001
2018-07-03T13:00:47.272Z,5574
2018-07-03T13:01:48.892Z,5681
2018-07-03T13:02:50.532Z,6271
2018-07-03T13:03:52.177Z,6176
2018-07-03T13:04:53.820Z,6108
2018-07-03T13:05:55.463Z,6176
2018-07-03T13:06:57.105Z,5996
2018-07-03T13:07:58.781Z,5788
2018-07-03T13:09:00.393Z,5951
2018-07-03T13:10:02.032Z,6091
2018-07-03T13:11:03.680Z,5917
2018-07-03T13:12:05.321Z,5495
2018-07-03T13:13:06.964Z,5366
2018-07-03T13:14:08.599Z,5490
2018-07-03T13:15:10.244Z,5653
2018-07-03T13:16:11.884Z,5844
2018-07-03T13:17:13.521Z,5658
2018-07-03T13:18:15.171Z,5253
2018-07-03T13:19:16.814Z,5231
2018-07-03T13:20:18.451Z,5743
2018-07-03T13:21:20.105Z,5625
2018-07-03T13:22:21.730Z,5085
2018-07-03T13:23:23.370Z,4910
2018-07-03T13:24:25.014Z,5231
2018-07-03T13:25:26.650Z,5400
2018-07-03T13:26:28.295Z,5428
2018-07-03T13:27:29.931Z,5349
2018-07-03T13:28:31.568Z,5349
2018-07-03T13:29:33.207Z,5450
2018-07-03T13:30:34.859Z,5535
2018-07-03T13:31:36.545Z,5501
2018-07-03T13:32:38.137Z,5450
2018-07-03T13:33:39.785Z,5107
2018-07-03T13:34:41.419Z,5017
2018-07-03T13:35:43.059Z,5011
2018-07-03T13:36:44.703Z,5180
2018-07-03T13:37:46.334Z,5242
2018-07-03T13:38:47.977Z,5490
2018-07-03T13:39:49.626Z,5501
2018-07-03T13:40:51.264Z,5422
2018-07-03T13:41:52.901Z,5253
2018-07-03T13:42:54.543Z,5101
2018-07-03T13:43:56.181Z,5085
2018-07-03T13:44:57.824Z,5411
2018-07-03T13:45:59.467Z,5641
2018-07-03T13:47:01.111Z,5456
2018-07-03T13:48:02.774Z,5523
2018-07-03T13:49:04.384Z,5647
2018-07-03T13:50:06.017Z,5236
2018-07-03T13:51:07.662Z,5400
2018-07-03T13:52:09.301Z,5349
2018-07-03T13:53:10.940Z,5023
2018-07-03T13:54:12.584Z,4995
2018-07-03T13:55:14.234Z,5006
2018-07-03T13:56:15.869Z,5152
2018-07-03T13:57:17.508Z,4798
2018-07-03T13:58:19.151Z,4511
2018-07-03T13:59:20.786Z,4888
2018-07-03T14:00:22.424Z,4910
2018-07-03T14:01:24.063Z,4786
2018-07-03T14:02:25.699Z,4933
2018-07-03T14:03:27.340Z,4938
2018-07-03T14:04:28.976Z,5045
2018-07-03T14:05:30.620Z,5197
2018-07-03T14:06:32.263Z,5135
2018-07-03T14:07:33.896Z,5011